createdAt,value
2022-08-03T00:06:36.884Z,19
2022-08-03T00:16:35.646Z,18.8
2022-08-03T00:26:37.439Z,18.6
2022-08-03T00:36:39.961Z,18.5
2022-08-03T00:46:42.009Z,18.5
2022-08-03T00:56:59.378Z,18.4
2022-08-03T01:06:45.723Z,18.2
2022-08-03T01:16:48.365Z,18.1
2022-08-03T01:26:50.516Z,18
2022-08-03T01:36:52.421Z,18.2
2022-08-03T01:46:54.114Z,18
2022-08-03T01:56:56.219Z,17.8
2022-08-03T02:07:00.985Z,17.7
2022-08-03T02:17:00.668Z,17.7
2022-08-03T02:27:03.411Z,17.8
2022-08-03T02:37:05.687Z,17.9
2022-08-03T02:47:07.476Z,17.8
2022-08-03T02:57:09.189Z,17.7
2022-08-03T03:07:11.465Z,17.7
2022-08-03T03:47:29.319Z,17.6
2022-08-03T03:57:21.867Z,17.4
2022-08-03T04:07:23.512Z,17.5
2022-08-03T04:27:27.702Z,17.3
2022-08-03T04:37:29.807Z,17.5
2022-08-03T05:07:36.806Z,18.5
2022-08-03T05:17:38.464Z,18.7
2022-08-03T05:27:40.239Z,19
2022-08-03T06:07:48.836Z,21.3
2022-08-03T07:58:10.352Z,25.7
2022-08-03T08:08:12.124Z,26.3
2022-08-03T08:28:22.148Z,27.3
2022-08-03T08:38:17.567Z,27.5
2022-08-03T08:48:20.182Z,28
2022-08-03T08:58:21.896Z,28
2022-08-03T09:18:26.511Z,28.7
2022-08-03T09:28:32.326Z,28.9
2022-08-03T09:48:33.022Z,28.9
2022-08-03T09:58:35.536Z,29
2022-08-03T10:08:59.688Z,29.5
2022-08-03T10:18:47.202Z,29.5
2022-08-03T10:28:49.533Z,30
2022-08-03T10:38:52.068Z,29.9
2022-08-03T10:48:54.525Z,29.8
2022-08-03T10:58:57.803Z,30.1
2022-08-03T11:08:58.591Z,30.5
2022-08-03T11:19:00.209Z,30.2
2022-08-03T11:29:02.487Z,30.6
2022-08-03T11:49:09.713Z,30.5
2022-08-03T11:59:19.777Z,30.7
2022-08-03T12:09:11.026Z,32.3
2022-08-03T12:29:14.958Z,32.1
2022-08-03T12:39:16.878Z,31.2
2022-08-03T12:59:21.090Z,31.8
2022-08-03T13:09:22.831Z,32
2022-08-03T13:19:25.427Z,32.1
2022-08-03T13:59:34.705Z,32.6
2022-08-03T14:19:44.927Z,32.2
2022-08-03T14:29:41.631Z,32.8
2022-08-03T14:39:59.909Z,32
2022-08-03T14:50:29.961Z,32.2
2022-08-03T14:59:54.056Z,31.9
2022-08-03T15:09:50.027Z,32.7
2022-08-03T15:20:00.058Z,32.8
2022-08-03T15:30:06.469Z,32.8
2022-08-03T15:39:58.657Z,33
2022-08-03T15:49:59.594Z,33.5
2022-08-03T16:00:01.423Z,32.8
2022-08-03T16:10:03.648Z,33.2
2022-08-03T16:20:10.716Z,32.1
2022-08-03T16:30:08.425Z,31.5
2022-08-03T16:40:17.185Z,31.4
2022-08-03T16:50:17.413Z,31.3
2022-08-03T17:00:33.430Z,31.5
2022-08-03T17:10:17.255Z,31.3
2022-08-03T17:30:20.952Z,31.2
2022-08-03T17:40:23.097Z,31.1
2022-08-03T17:50:25.989Z,31
2022-08-03T18:00:26.821Z,30.9
2022-08-03T18:10:29.302Z,30.8
2022-08-03T18:20:40.842Z,30.6
2022-08-03T18:30:33.817Z,30.1
2022-08-03T18:40:35.960Z,29.6
2022-08-03T18:50:38.960Z,29.2
2022-08-03T19:00:42.794Z,28.9
2022-08-03T19:10:41.334Z,28.5
2022-08-03T19:20:43.242Z,28.1
2022-08-03T19:30:46.350Z,27.9
2022-08-03T19:40:50.899Z,27.7
2022-08-03T19:50:48.727Z,27.2
2022-08-03T20:00:51.272Z,27
2022-08-03T20:10:53.252Z,26.9
2022-08-03T20:20:55.616Z,26.4
2022-08-03T20:30:57.409Z,26.2
2022-08-03T20:40:59.280Z,25.6
2022-08-03T20:51:01.427Z,25.2
2022-08-03T21:01:04.001Z,24.9
2022-08-03T21:11:05.924Z,24.7
2022-08-03T21:21:07.774Z,24.4
2022-08-03T21:31:09.965Z,24.2
2022-08-03T21:41:12.589Z,23.9
2022-08-03T21:51:14.872Z,23.6
2022-08-03T22:01:17.237Z,23.5
2022-08-03T22:11:19.307Z,23.4
2022-08-03T22:21:27.616Z,23
2022-08-03T22:41:25.659Z,22.8
